KEST

Estherville Municipal Airport

Estherville, Iowa, USA
METAR KEST 250052Z AUTO 22009KT 10SM VCTS CLR 28/16 A2988 RMK AO2 LTG DSNT SE AND S SLP108 T02780161
Observed Flight Rules
May-25 @ 00:52 UTC (28 minutes ago) Visual Flight Rules
Wind Visibility Clouds Conditions
220° at 9 knots 10 miles
  • Clear skies
  • Area Thunderstorm
Temperatures Readings
Current 28°C / 82°F
Dewpoint 16°C / 61°F
Humidity 48%
Altimeter 29.88" Hg
Pressure 1010.8 hPa
Elevation 401
METAR KEST 250052Z AUTO 22009KT 10SM VCTS CLR 28/16 A2988 RMK AO2 LTG DSNT SE AND S SLP108 T02780161
Observed Flight Rules
May-25 @ 00:52 UTC
(28 minutes ago)
VFR
Wind Visibility
220° at 9 knots 10 miles
Clouds
  • Clear skies
Conditions
  • Area Thunderstorm
Temperature Dewpoint
28°C / 82°F 16°C / 61°F
Humidity Altimeter Pressure
48% 29.88" Hg 1010.8 hPa